Time;durP1;ratioP1;P1;durP2;ratioP2;P2;SDS_P1;SDS_P2;PMS_P1;PMS_P2;Temp;Humidity;BMP_temperature;BMP_pressure;BME280_temperature;BME280_humidity;BME280_pressure;Samples;Min_cycle;Max_cycle;Signal;HPM_P1;HPM_P2
2022/08/27 00:00:31;;;;;;;3.57;3.27;;;;;;;17.87;100.00;96131.97;5074121;28;20210;-76
2022/08/27 00:02:58;;;;;;;6.47;3.00;;;;;;;17.88;100.00;96136.34;5083544;28;20207;-76
2022/08/27 00:05:25;;;;;;;4.40;3.00;;;;;;;17.87;100.00;96131.97;5085903;28;20228;-76
2022/08/27 00:07:52;;;;;;;4.37;3.30;;;;;;;17.88;100.00;96130.88;5076492;28;20359;-76
2022/08/27 00:10:23;;;;;;;4.17;3.77;;;;;;;17.89;100.00;96134.44;5075582;28;20220;-76
2022/08/27 00:12:54;;;;;;;3.90;3.40;;;;;;;17.79;100.00;96129.84;5070067;28;20307;-76
2022/08/27 00:15:22;;;;;;;3.50;3.20;;;;;;;17.71;100.00;96125.78;5075805;28;20197;-76
2022/08/27 00:17:49;;;;;;;4.73;3.23;;;;;;;17.70;100.00;96126.06;5083080;28;20233;-77
2022/08/27 00:20:20;;;;;;;4.80;3.10;;;;;;;17.65;100.00;96128.81;5089590;28;20204;-75
2022/08/27 00:22:47;;;;;;;3.47;2.93;;;;;;;17.66;100.00;96125.00;5076314;28;20263;-77
2022/08/27 00:25:14;;;;;;;4.57;3.37;;;;;;;17.62;100.00;96118.44;5078940;28;20206;-76
2022/08/27 00:27:41;;;;;;;5.33;3.40;;;;;;;17.58;100.00;96125.56;5075593;28;20208;-76
2022/08/27 00:30:14;;;;;;;3.70;3.40;;;;;;;17.49;100.00;96127.22;5077599;28;20201;-76
2022/08/27 00:32:42;;;;;;;7.13;3.60;;;;;;;17.42;100.00;96124.81;5082870;28;20208;-76
2022/08/27 00:35:10;;;;;;;3.73;3.27;;;;;;;17.42;100.00;96124.81;5093742;28;20202;-75
2022/08/27 00:37:37;;;;;;;7.87;3.47;;;;;;;17.45;100.00;96121.50;5076319;28;20260;-76
2022/08/27 00:40:07;;;;;;;4.50;3.40;;;;;;;17.48;100.00;96123.69;5070811;28;20220;-76
2022/08/27 00:42:34;;;;;;;3.37;3.07;;;;;;;17.57;100.00;96124.72;5081358;28;20265;-76
2022/08/27 00:45:01;;;;;;;3.60;3.07;;;;;;;17.56;100.00;96125.00;5078135;28;20224;-75
2022/08/27 00:47:32;;;;;;;4.30;3.53;;;;;;;17.49;100.00;96119.84;5083440;28;20205;-76
2022/08/27 00:50:04;;;;;;;4.87;3.37;;;;;;;17.41;100.00;96117.69;5072653;28;20207;-76
2022/08/27 00:52:34;;;;;;;5.43;3.43;;;;;;;17.37;100.00;96111.97;5083888;28;20215;-75
2022/08/27 00:55:05;;;;;;;3.93;3.30;;;;;;;17.43;100.00;96120.97;5082304;28;20266;-75
2022/08/27 00:57:34;;;;;;;5.43;3.10;;;;;;;17.45;100.00;96115.22;5081430;28;20216;-76
2022/08/27 01:00:01;;;;;;;3.40;2.83;;;;;;;17.39;100.00;96109.78;5072039;28;20208;-76
2022/08/27 01:02:30;;;;;;;5.67;3.30;;;;;;;17.36;100.00;96115.78;5084904;28;20275;-76
2022/08/27 01:05:00;;;;;;;3.60;3.30;;;;;;;17.29;100.00;96109.00;5086610;28;20201;-76
2022/08/27 01:07:30;;;;;;;3.97;3.33;;;;;;;17.28;100.00;96108.19;5077397;28;20228;-76
2022/08/27 01:10:00;;;;;;;3.50;3.20;;;;;;;17.25;100.00;96095.13;5073037;28;20205;-76
2022/08/27 01:12:30;;;;;;;3.40;3.10;;;;;;;17.32;100.00;96101.09;5075977;28;20212;-76
2022/08/27 01:14:57;;;;;;;6.20;3.40;;;;;;;17.29;100.00;96090.72;5080531;28;20196;-75
2022/08/27 01:17:25;;;;;;;3.40;3.10;;;;;;;17.31;100.00;96087.72;5074484;28;20230;-76
2022/08/27 01:19:57;;;;;;;3.23;2.93;;;;;;;17.35;100.00;96091.53;5079015;28;20240;-75
2022/08/27 01:22:33;;;;;;;4.67;3.43;;;;;;;17.32;100.00;96083.91;5068686;28;20209;-76
2022/08/27 01:25:06;;;;;;;4.60;3.13;;;;;;;17.36;100.00;96082.22;5091870;28;20201;-76
2022/08/27 01:27:34;;;;;;;3.70;3.00;;;;;;;17.36;100.00;96077.59;5080263;28;20284;-75
2022/08/27 01:30:01;;;;;;;3.13;2.93;;;;;;;17.42;100.00;96083.84;5076718;28;20208;-76
2022/08/27 01:32:32;;;;;;;3.40;3.10;;;;;;;17.43;100.00;96084.69;5091418;28;20205;-75
2022/08/27 01:35:00;;;;;;;3.70;3.10;;;;;;;17.49;100.00;96084.38;5082285;28;20217;-76
2022/08/27 01:37:28;;;;;;;3.10;2.90;;;;;;;17.49;100.00;96078.09;5075316;28;20212;-76
2022/08/27 01:39:57;;;;;;;4.37;3.00;;;;;;;17.50;100.00;96077.00;5073770;28;20224;-76
2022/08/27 01:42:31;;;;;;;3.17;2.80;;;;;;;17.46;100.00;96073.19;5070475;28;20209;-76
2022/08/27 01:45:00;;;;;;;3.17;2.87;;;;;;;17.47;100.00;96067.44;5076806;28;20203;-76
2022/08/27 01:47:29;;;;;;;3.20;2.90;;;;;;;17.50;100.00;96063.34;5072729;28;20212;-76
2022/08/27 01:49:57;;;;;;;3.23;2.93;;;;;;;17.48;100.00;96052.72;5085225;28;20284;-75
2022/08/27 01:52:28;;;;;;;3.27;2.97;;;;;;;17.52;100.00;96055.69;5074594;28;20213;-75
2022/08/27 01:54:55;;;;;;;3.33;2.90;;;;;;;17.52;100.00;96044.78;5090816;28;20204;-75
2022/08/27 01:57:23;;;;;;;2.87;2.67;;;;;;;17.43;100.00;96047.28;5076027;28;20228;-76
2022/08/27 01:59:51;;;;;;;2.97;2.67;;;;;;;17.38;100.00;96036.38;5083057;28;20247;-75
2022/08/27 02:02:19;;;;;;;2.90;2.60;;;;;;;17.36;100.00;96036.66;5073734;28;20204;-75
2022/08/27 02:04:46;;;;;;;3.73;3.00;;;;;;;17.38;100.00;96030.91;5086642;28;20196;-76
2022/08/27 02:07:13;;;;;;;3.90;2.83;;;;;;;17.43;100.00;96035.53;5082466;28;20204;-76
2022/08/27 02:09:40;;;;;;;3.30;2.80;;;;;;;17.34;100.00;96030.69;5077684;28;20254;-75
2022/08/27 02:12:08;;;;;;;5.37;3.10;;;;;;;17.41;100.00;96027.63;5076730;28;20238;-77
2022/08/27 02:14:35;;;;;;;3.00;2.70;;;;;;;17.37;100.00;96024.63;5074608;28;20211;-75
2022/08/27 02:17:04;;;;;;;4.23;2.50;;;;;;;17.33;100.00;96018.13;5083441;28;20240;-75
2022/08/27 02:19:31;;;;;;;3.57;2.80;;;;;;;17.28;100.00;96009.13;5085793;28;20318;-76
2022/08/27 02:21:59;;;;;;;2.73;2.53;;;;;;;17.28;100.00;96004.50;5071552;28;20208;-75
2022/08/27 02:24:27;;;;;;;3.43;2.73;;;;;;;17.29;100.00;96011.59;5083493;28;20205;-76
2022/08/27 02:26:55;;;;;;;3.80;3.10;;;;;;;17.28;100.00;96012.69;5077915;28;20254;-75
2022/08/27 02:29:22;;;;;;;6.27;3.07;;;;;;;17.29;100.00;96017.03;5084839;28;20624;-75
2022/08/27 02:31:49;;;;;;;3.83;3.00;;;;;;;17.30;100.00;96010.50;5073904;28;20201;-76
2022/08/27 02:34:18;;;;;;;2.77;2.57;;;;;;;17.37;100.00;96013.72;5074626;28;20213;-76
2022/08/27 02:36:45;;;;;;;4.53;2.60;;;;;;;17.38;100.00;96004.44;5088424;28;20213;-77
2022/08/27 02:39:12;;;;;;;4.27;3.13;;;;;;;17.35;100.00;96006.94;5078211;28;20221;-75
2022/08/27 02:41:39;;;;;;;3.50;2.90;;;;;;;17.32;100.00;96005.56;5085849;28;20203;-75
2022/08/27 02:44:06;;;;;;;2.90;2.60;;;;;;;17.35;100.00;96007.72;5084199;28;20269;-76
2022/08/27 02:46:33;;;;;;;2.77;2.53;;;;;;;17.46;100.00;96004.94;5073738;28;20193;-75
2022/08/27 02:49:00;;;;;;;4.30;2.80;;;;;;;17.46;100.00;96007.66;5081059;28;20451;-75
2022/08/27 02:51:29;;;;;;;3.83;2.77;;;;;;;17.61;100.00;96002.13;5076444;28;20208;-76
2022/08/27 02:53:56;;;;;;;2.80;2.60;;;;;;;17.59;100.00;96004.34;5087623;28;20197;-75
2022/08/27 02:56:23;;;;;;;3.77;2.73;;;;;;;17.55;100.00;95992.34;5085970;28;20228;-76
2022/08/27 02:58:50;;;;;;;3.57;2.50;;;;;;;17.58;100.00;95997.25;5079911;28;20320;-75
2022/08/27 03:01:17;;;;;;;3.50;2.70;;;;;;;17.53;100.00;95989.88;5076627;28;20205;-76
2022/08/27 03:03:44;;;;;;;2.87;2.50;;;;;;;17.51;100.00;95980.38;5082920;28;20197;-75
2022/08/27 03:06:12;;;;;;;3.50;2.60;;;;;;;17.54;100.00;95983.31;5077164;28;20219;-76
2022/08/27 03:08:41;;;;;;;3.40;2.60;;;;;;;17.52;100.00;95979.28;5077772;28;20200;-75
2022/08/27 03:11:08;;;;;;;4.50;2.53;;;;;;;17.56;100.00;95972.13;5080816;28;20208;-76
2022/08/27 03:13:37;;;;;;;2.90;2.40;;;;;;;17.58;100.00;95976.22;5074954;28;20227;-75
2022/08/27 03:16:05;;;;;;;2.63;2.43;;;;;;;17.52;100.00;95971.06;5083752;28;20290;-76
2022/08/27 03:18:32;;;;;;;3.03;2.10;;;;;;;17.49;100.00;95956.06;5084212;28;20306;-76
2022/08/27 03:21:02;;;;;;;2.60;2.40;;;;;;;17.48;100.00;95959.91;5087787;28;20197;-76
2022/08/27 03:23:32;;;;;;;2.33;2.13;;;;;;;17.53;100.00;95956.31;5078131;28;20300;-77
2022/08/27 03:26:03;;;;;;;2.60;2.40;;;;;;;17.60;100.00;95968.56;5077311;28;20548;-75
2022/08/27 03:28:34;;;;;;;2.63;2.43;;;;;;;17.64;100.00;95958.72;5081566;28;20208;-76
2022/08/27 03:31:03;;;;;;;2.23;2.03;;;;;;;17.60;100.00;95952.19;5080596;28;20213;-76
2022/08/27 03:33:31;;;;;;;2.87;2.67;;;;;;;17.58;100.00;95953.56;5072565;28;20194;-77
2022/08/27 03:35:59;;;;;;;3.23;2.80;;;;;;;17.50;100.00;95945.97;5084694;28;20201;-75
2022/08/27 03:38:26;;;;;;;2.50;2.30;;;;;;;17.54;100.00;95949.75;5081868;28;20197;-76
2022/08/27 03:40:53;;;;;;;4.53;2.50;;;;;;;17.55;100.00;95949.47;5082224;28;20201;-76
2022/08/27 03:43:23;;;;;;;3.50;2.40;;;;;;;17.58;100.00;95946.19;5070410;28;20216;-76
2022/08/27 03:45:51;;;;;;;3.33;2.33;;;;;;;17.61;100.00;95944.78;5076909;28;20204;-76
2022/08/27 03:48:19;;;;;;;2.80;2.60;;;;;;;17.57;100.00;95941.81;5077238;28;20209;-76
2022/08/27 03:50:48;;;;;;;2.57;2.37;;;;;;;17.60;100.00;95938.53;5088799;28;20233;-76
2022/08/27 03:53:19;;;;;;;3.30;2.40;;;;;;;17.63;100.00;95937.97;5079289;28;20201;-75
2022/08/27 03:55:46;;;;;;;4.47;2.43;;;;;;;17.65;100.00;95938.50;5075134;28;20221;-75
2022/08/27 03:58:14;;;;;;;4.17;2.40;;;;;;;17.71;100.00;95937.38;5076894;28;20295;-76
2022/08/27 04:00:43;;;;;;;3.03;2.60;;;;;;;17.71;100.00;95936.53;5082667;28;20201;-77
2022/08/27 04:03:13;;;;;;;2.83;2.63;;;;;;;17.71;100.00;95933.81;5084386;28;20202;-76
2022/08/27 04:05:41;;;;;;;3.50;2.70;;;;;;;17.73;100.00;95931.63;5084227;28;20208;-76
2022/08/27 04:08:08;;;;;;;3.90;2.97;;;;;;;17.73;100.00;95932.44;5090467;28;20213;-76
2022/08/27 04:10:35;;;;;;;4.00;3.10;;;;;;;17.73;100.00;95934.34;5091870;28;20209;-75
2022/08/27 04:13:02;;;;;;;5.07;3.30;;;;;;;17.77;100.00;95936.25;5073269;28;20216;-76
2022/08/27 04:15:30;;;;;;;3.23;2.80;;;;;;;17.80;100.00;95929.38;5080299;28;20205;-75
2022/08/27 04:17:58;;;;;;;3.27;2.40;;;;;;;17.76;100.00;95942.00;5075604;28;20237;-75
2022/08/27 04:20:27;;;;;;;2.90;2.60;;;;;;;17.73;100.00;95937.09;5086415;28;20228;-75
2022/08/27 04:22:54;;;;;;;3.87;2.83;;;;;;;17.76;100.00;95939.25;5083086;28;20204;-75
2022/08/27 04:25:21;;;;;;;3.03;2.80;;;;;;;17.77;100.00;95943.63;5082865;28;20274;-75
2022/08/27 04:27:48;;;;;;;3.50;3.00;;;;;;;17.73;100.00;95948.81;5084535;28;20201;-75
2022/08/27 04:30:15;;;;;;;4.50;3.13;;;;;;;17.67;100.00;95954.63;5073497;28;20204;-74
2022/08/27 04:32:42;;;;;;;3.27;3.03;;;;;;;17.62;100.00;95955.44;5074050;28;20250;-76
2022/08/27 04:35:11;;;;;;;7.77;3.40;;;;;;;17.64;100.00;95952.44;5082258;28;20201;-75
2022/08/27 04:37:39;;;;;;;4.10;3.43;;;;;;;17.64;100.00;95958.72;5074779;28;20232;-75
2022/08/27 04:40:07;;;;;;;3.50;2.97;;;;;;;17.66;100.00;95961.16;5069254;28;20243;-74
2022/08/27 04:42:34;;;;;;;3.70;3.20;;;;;;;17.71;100.00;95959.22;5075333;28;20204;-76
2022/08/27 04:45:02;;;;;;;3.67;3.00;;;;;;;17.75;100.00;95959.47;5085132;28;20205;-74
2022/08/27 04:47:29;;;;;;;3.53;3.23;;;;;;;17.78;100.00;95959.69;5082674;28;20219;-74
2022/08/27 04:49:56;;;;;;;3.63;3.20;;;;;;;17.83;100.00;95967.06;5074053;28;20281;-75
2022/08/27 04:52:25;;;;;;;4.07;2.90;;;;;;;17.86;100.00;95971.94;5081953;28;20226;-74
2022/08/27 04:54:52;;;;;;;3.27;2.60;;;;;;;17.79;100.00;95968.72;5072316;28;20226;-75
2022/08/27 04:57:19;;;;;;;5.57;2.60;;;;;;;17.65;100.00;95973.19;5076338;28;20220;-75
2022/08/27 04:59:46;;;;;;;3.10;2.80;;;;;;;17.54;100.00;95969.69;5076366;28;20226;-75
2022/08/27 05:02:14;;;;;;;5.23;2.80;;;;;;;17.47;100.00;95971.91;5081697;28;20231;-74
2022/08/27 05:04:41;;;;;;;5.60;3.20;;;;;;;17.49;100.00;95971.63;5076348;28;20212;-74
2022/08/27 05:07:10;;;;;;;3.60;2.80;;;;;;;17.47;100.00;95965.63;5075610;28;20328;-75
2022/08/27 05:09:38;;;;;;;3.07;2.47;;;;;;;17.38;100.00;95966.22;5081912;28;20260;-75
2022/08/27 05:12:06;;;;;;;3.70;2.50;;;;;;;17.28;100.00;95966.28;5081672;28;20208;-74
2022/08/27 05:14:33;;;;;;;5.83;2.87;;;;;;;17.26;100.00;95976.69;5079692;28;20208;-75
2022/08/27 05:17:02;;;;;;;3.00;2.80;;;;;;;17.24;100.00;95984.34;5077580;28;20240;-75
2022/08/27 05:19:29;;;;;;;5.80;2.73;;;;;;;17.24;100.00;95984.34;5075433;28;20232;-75
2022/08/27 05:21:56;;;;;;;4.17;3.20;;;;;;;17.22;100.00;95986.53;5081327;28;20221;-75
2022/08/27 05:24:23;;;;;;;3.40;3.13;;;;;;;17.18;100.00;95982.72;5084616;28;20235;-74
2022/08/27 05:26:52;;;;;;;4.37;3.30;;;;;;;17.16;100.00;95978.66;5078607;28;20233;-75
2022/08/27 05:29:19;;;;;;;3.47;2.90;;;;;;;17.14;100.00;95980.84;5075306;28;20236;-75
2022/08/27 05:31:47;;;;;;;3.37;2.87;;;;;;;17.13;100.00;95968.28;5077099;28;20216;-75
2022/08/27 05:34:15;;;;;;;3.30;3.00;;;;;;;17.08;100.00;95971.88;5074571;28;20205;-75
2022/08/27 05:36:42;;;;;;;3.50;3.20;;;;;;;17.09;100.00;95973.50;5087305;28;20212;-74
2022/08/27 05:39:10;;;;;;;4.13;3.07;;;;;;;17.10;100.00;95972.38;5074285;28;20228;-74
2022/08/27 05:41:37;;;;;;;3.50;3.20;;;;;;;17.05;100.00;95975.16;5076257;28;20211;-75
2022/08/27 05:44:08;;;;;;;5.83;3.90;;;;;;;17.05;100.00;95977.88;5079173;28;20202;-74
2022/08/27 05:46:36;;;;;;;3.20;2.90;;;;;;;17.11;100.00;95978.66;5079950;28;20200;-74
2022/08/27 05:49:03;;;;;;;3.40;3.10;;;;;;;17.12;100.00;95980.28;5070390;28;20284;-75
2022/08/27 05:51:32;;;;;;;4.80;3.27;;;;;;;17.09;100.00;95978.97;5080282;28;20205;-75
2022/08/27 05:54:01;;;;;;;3.37;3.07;;;;;;;17.10;100.00;95980.56;5082374;28;20209;-75
2022/08/27 05:56:31;;;;;;;3.50;3.20;;;;;;;17.16;100.00;95984.09;5072592;28;20290;-75
2022/08/27 06:01:46;;;;;;;4.43;3.50;;;;;;;17.21;100.00;95990.34;5082281;28;20287;-75
2022/08/27 06:04:15;;;;;;;4.53;3.43;;;;;;;17.28;100.00;95992.75;5081356;28;20248;-75
2022/08/27 06:06:44;;;;;;;5.67;3.50;;;;;;;17.32;100.00;95997.38;5079754;28;20204;-75
2022/08/27 06:09:13;;;;;;;3.83;3.50;;;;;;;17.37;100.00;95999.25;5083901;28;20239;-75
2022/08/27 06:11:40;;;;;;;4.30;3.27;;;;;;;17.43;100.00;96000.06;5080777;28;20208;-75
2022/08/27 06:14:08;;;;;;;4.87;3.47;;;;;;;17.48;100.00;95997.28;5078398;28;20205;-74
2022/08/27 06:16:37;;;;;;;5.60;3.70;;;;;;;17.42;100.00;96004.72;5078762;28;20229;-75
2022/08/27 06:19:06;;;;;;;4.93;3.30;;;;;;;17.34;100.00;96000.66;5088657;28;20205;-75
2022/08/27 06:21:34;;;;;;;3.80;3.47;;;;;;;17.30;100.00;95994.13;5071881;28;20211;-75
2022/08/27 06:24:02;;;;;;;3.97;3.43;;;;;;;17.32;100.00;96000.13;5080850;28;20217;-74
2022/08/27 06:26:29;;;;;;;4.73;3.93;;;;;;;17.28;100.00;96004.50;5075922;28;20321;-75
2022/08/27 06:28:56;;;;;;;5.43;4.13;;;;;;;17.28;100.00;96003.69;5069607;28;20200;-75
2022/08/27 06:31:25;;;;;;;4.57;4.00;;;;;;;17.38;100.00;96007.16;5076777;28;20200;-75
2022/08/27 06:33:54;;;;;;;5.17;3.70;;;;;;;17.48;100.00;96002.75;5093569;28;20198;-75
2022/08/27 06:36:24;;;;;;;5.27;3.97;;;;;;;17.54;100.00;96007.06;5087334;28;20202;-75
2022/08/27 06:38:52;;;;;;;4.87;4.17;;;;;;;17.58;100.00;96008.97;5068911;28;20524;-75
2022/08/27 06:41:22;;;;;;;6.07;3.80;;;;;;;17.68;100.00;96002.66;5078011;28;20229;-75
2022/08/27 06:43:49;;;;;;;4.00;3.60;;;;;;;17.71;100.00;96002.09;5098506;28;20216;-77
2022/08/27 06:46:20;;;;;;;4.20;3.47;;;;;;;17.81;100.00;95991.09;5074064;28;20197;-75
2022/08/27 06:48:48;;;;;;;3.33;3.03;;;;;;;17.86;100.00;96001.19;5091887;28;20296;-75
2022/08/27 06:51:18;;;;;;;3.63;3.00;;;;;;;17.91;100.00;96001.13;5079220;28;20200;-75
2022/08/27 06:53:48;;;;;;;3.60;3.30;;;;;;;18.01;100.00;96010.06;5082525;28;20201;-75
2022/08/27 06:56:16;;;;;;;4.80;3.30;;;;;;;18.10;100.00;96010.28;5081546;28;20234;-75
2022/08/27 06:58:44;;;;;;;3.87;3.33;;;;;;;18.20;100.00;96014.84;5081000;28;20200;-76
2022/08/27 07:01:16;;;;;;;3.50;3.10;;;;;;;18.26;100.00;96010.94;5081280;28;20248;-75
2022/08/27 07:03:43;;;;;;;3.30;3.00;;;;;;;18.22;100.00;96007.97;5100269;28;20205;-75
2022/08/27 07:06:13;;;;;;;4.63;3.40;;;;;;;18.24;100.00;96004.94;5082645;28;20205;-75
2022/08/27 07:08:40;;;;;;;3.67;3.03;;;;;;;18.30;100.00;96010.06;5093018;27;20213;-75
2022/08/27 07:11:10;;;;;;;3.30;3.00;;;;;;;18.41;100.00;95997.94;5080372;28;20234;-75
2022/08/27 07:13:38;;;;;;;4.43;3.03;;;;;;;18.53;100.00;95997.56;5087208;28;20212;-75
2022/08/27 07:16:06;;;;;;;3.40;3.10;;;;;;;18.65;100.00;96003.47;5091724;28;20220;-75
2022/08/27 07:18:34;;;;;;;3.30;3.00;;;;;;;18.72;100.00;96011.34;5086974;28;20289;-75
2022/08/27 07:21:03;;;;;;;4.17;3.20;;;;;;;18.80;100.00;96007.97;5084846;28;20233;-75
2022/08/27 07:23:31;;;;;;;3.50;2.93;;;;;;;18.85;100.00;96005.19;5072866;28;20213;-75
2022/08/27 07:25:59;;;;;;;3.77;2.90;;;;;;;18.88;100.00;95999.94;5078983;28;20201;-76
2022/08/27 07:28:28;;;;;;;3.37;3.07;;;;;;;18.99;100.00;96005.28;5084424;28;20200;-75
2022/08/27 07:30:55;;;;;;;3.75;3.10;;;;;;;19.06;100.00;96000.28;5071843;28;20201;-75
2022/08/27 07:33:24;;;;;;;3.07;2.80;;;;;;;19.18;100.00;96009.72;5072682;28;20263;-75
2022/08/27 07:35:51;;;;;;;2.97;2.67;;;;;;;19.24;100.00;96002.25;5080076;28;20205;-75
2022/08/27 07:38:18;;;;;;;3.27;2.97;;;;;;;19.30;100.00;96000.28;5073717;28;20202;-75
2022/08/27 07:40:45;;;;;;;3.22;2.78;;;;;;;19.35;100.00;96008.41;5079090;28;20312;-75
2022/08/27 07:46:02;;;;;;;6.05;3.10;;;;;;;19.55;100.00;95999.97;5076791;28;20217;-75
2022/08/27 07:48:29;;;;;;;2.90;2.70;;;;;;;19.61;100.00;96007.78;5082149;28;20216;-76
2022/08/27 07:50:57;;;;;;;3.47;3.17;;;;;;;19.54;100.00;95996.41;5075852;28;20251;-75
2022/08/27 07:53:24;;;;;;;5.10;3.42;;;;;;;19.62;100.00;96003.94;5081450;28;20214;-75
2022/08/27 07:55:51;;;;;;;6.18;4.50;;;;;;;19.85;100.00;96006.91;5072154;28;20198;-75
2022/08/27 07:58:18;;;;;;;3.63;3.15;;;;;;;20.10;100.00;96009.25;5073688;28;20220;-75
2022/08/27 08:00:46;;;;;;;3.70;3.40;;;;;;;20.25;100.00;96008.97;5076625;28;20249;-76
2022/08/27 08:03:14;;;;;;;4.32;3.55;;;;;;;20.57;100.00;96007.38;5080724;28;20542;-76
2022/08/27 08:05:42;;;;;;;5.82;3.20;;;;;;;20.97;100.00;96003.88;5084438;28;20212;-76
2022/08/27 08:08:10;;;;;;;3.50;3.20;;;;;;;21.25;100.00;96006.66;5086348;28;20406;-76
2022/08/27 08:10:39;;;;;;;3.70;3.40;;;;;;;21.24;100.00;96007.78;5073420;28;20211;-76
2022/08/27 08:13:07;;;;;;;4.47;3.17;;;;;;;21.00;100.00;95997.78;5083549;28;20197;-76
2022/08/27 08:15:34;;;;;;;3.55;3.25;;;;;;;21.04;100.00;96004.28;5081330;28;20202;-76
2022/08/27 08:18:02;;;;;;;3.67;3.38;;;;;;;21.15;100.00;95997.47;5081215;28;20371;-77
2022/08/27 08:20:31;;;;;;;3.63;3.33;;;;;;;21.39;100.00;96002.75;5082485;28;20229;-76
2022/08/27 08:22:58;;;;;;;3.85;3.08;;;;;;;21.49;100.00;96002.56;5076047;28;20231;-76
2022/08/27 08:25:25;;;;;;;3.63;3.08;;;;;;;21.79;100.00;96009.28;5085009;28;20537;-76
2022/08/27 08:27:52;;;;;;;3.90;3.58;;;;;;;21.79;100.00;96003.78;5083841;28;20211;-76
2022/08/27 08:30:20;;;;;;;3.58;3.28;;;;;;;21.88;100.00;96004.69;5083489;28;20220;-76
2022/08/27 08:32:47;;;;;;;4.60;3.40;;;;;;;21.83;100.00;96007.56;5076426;28;20192;-76
2022/08/27 08:35:15;;;;;;;3.47;2.78;;;;;;;21.90;100.00;96012.63;5084156;28;20212;-76
2022/08/27 08:37:43;;;;;;;3.35;3.05;;;;;;;21.95;100.00;96018.00;5071646;28;20193;-76
2022/08/27 08:40:15;;;;;;;3.65;3.20;;;;;;;21.85;100.00;96013.56;5085559;28;20305;-76
2022/08/27 08:42:46;;;;;;;4.97;3.20;;;;;;;21.72;100.00;96022.66;5093787;28;20204;-76
2022/08/27 08:45:16;;;;;;;3.55;3.25;;;;;;;21.61;100.00;96015.75;5080428;28;20278;-76
2022/08/27 08:47:47;;;;;;;3.92;3.22;;;;;;;21.63;100.00;96018.19;5079757;28;20205;-76
2022/08/27 08:50:19;;;;;;;3.78;3.13;;;;;;;21.60;100.00;96008.66;5073995;28;20238;-76
2022/08/27 08:52:54;;;;;;;3.30;3.00;;;;;;;21.59;100.00;96017.19;5070904;28;20216;-75
2022/08/27 08:55:37;;;;;;;5.93;3.15;;;;;;;21.60;100.00;96025.13;5068263;28;20235;-76
2022/08/27 08:58:14;;;;;;;4.63;3.47;;;;;;;21.71;100.00;96020.19;5100665;28;20216;-76
2022/08/27 09:00:44;;;;;;;3.38;3.08;;;;;;;21.74;100.00;96020.41;5085171;28;20209;-76
2022/08/27 09:03:13;;;;;;;3.50;3.20;;;;;;;21.80;100.00;96023.84;5071699;28;20215;-76
2022/08/27 09:05:45;;;;;;;3.90;3.10;;;;;;;21.89;100.00;96022.81;5075396;28;20223;-76
2022/08/27 09:08:20;;;;;;;4.25;3.15;;;;;;;21.89;100.00;96027.47;5079716;28;20212;-76
2022/08/27 09:10:55;;;;;;;3.72;3.42;;;;;;;21.97;100.00;96023.19;5083191;28;20235;-76
2022/08/27 09:13:25;;;;;;;3.47;3.17;;;;;;;22.08;100.00;96019.13;5093643;28;20254;-76
2022/08/27 09:15:57;;;;;;;3.53;3.22;;;;;;;22.16;100.00;96021.13;5070190;28;20276;-76
2022/08/27 09:18:25;;;;;;;4.55;3.17;;;;;;;22.18;100.00;96013.38;5071086;28;20279;-75
2022/08/27 09:21:03;;;;;;;3.75;3.45;;;;;;;22.39;100.00;96016.41;5076140;28;20224;-76
2022/08/27 09:23:39;;;;;;;4.40;3.53;;;;;;;22.44;100.00;96016.31;5080676;28;20220;-76
2022/08/27 09:26:17;;;;;;;4.15;3.60;;;;;;;22.50;100.00;96020.53;5084711;28;20205;-76
2022/08/27 09:31:29;;;;;;;4.13;3.60;;;;;;;22.58;100.00;96023.34;5067801;28;20197;-76
2022/08/27 09:33:56;;;;;;;3.85;3.53;;;;;;;22.77;100.00;96025.13;5082547;28;20213;-76
2022/08/27 09:36:24;;;;;;;4.32;3.55;;;;;;;22.96;99.04;96025.69;5079225;28;20206;-77
2022/08/27 09:38:57;;;;;;;4.15;3.75;;;;;;;23.13;98.30;96011.19;5082127;28;20232;-77
2022/08/27 09:41:27;;;;;;;3.90;3.50;;;;;;;23.13;99.29;96022.22;5074664;28;20235;-77
2022/08/27 09:43:59;;;;;;;4.57;4.15;;;;;;;23.17;100.00;96020.44;5076614;28;20223;-77
2022/08/27 09:46:27;;;;;;;3.95;3.55;;;;;;;23.09;96.94;96013.75;5084540;28;20209;-76
2022/08/27 09:48:54;;;;;;;5.90;3.42;;;;;;;23.06;98.31;96014.38;5068529;28;20220;-76
2022/08/27 09:51:26;;;;;;;4.20;3.80;;;;;;;23.18;99.11;96020.13;5081724;28;20207;-76
2022/08/27 09:53:57;;;;;;;3.60;3.30;;;;;;;23.14;97.16;96001.81;5081576;28;20216;-76
2022/08/27 09:56:29;;;;;;;4.07;3.70;;;;;;;23.11;97.11;96011.50;5082818;28;20224;-76
2022/08/27 09:59:02;;;;;;;4.00;3.60;;;;;;;23.15;96.09;96009.72;5074499;28;20224;-77
2022/08/27 10:01:31;;;;;;;3.65;3.35;;;;;;;23.22;95.79;96015.56;5083103;28;20228;-77
2022/08/27 10:04:10;;;;;;;4.90;3.70;;;;;;;23.09;97.35;96002.75;5086481;28;20201;-78
2022/08/27 10:06:44;;;;;;;4.25;3.85;;;;;;;22.99;97.97;96005.78;5076341;28;20275;-77
2022/08/27 10:09:17;;;;;;;6.40;4.00;;;;;;;23.00;98.45;96001.91;5078231;28;20232;-77
2022/08/27 10:11:50;;;;;;;3.83;3.53;;;;;;;23.04;97.32;95996.56;5089799;28;20197;-77
2022/08/27 10:14:26;;;;;;;3.95;3.60;;;;;;;23.05;96.91;95996.28;5081637;28;20217;-76
2022/08/27 10:17:04;;;;;;;3.97;3.38;;;;;;;23.08;96.62;95997.56;5089442;28;20224;-76
2022/08/27 10:19:45;;;;;;;4.13;3.72;;;;;;;23.23;97.40;95989.66;5088100;28;20270;-77
2022/08/27 10:22:28;;;;;;;4.32;3.78;;;;;;;23.35;96.05;95987.13;5082775;28;20350;-77
2022/08/27 10:25:09;;;;;;;4.28;3.88;;;;;;;23.42;95.17;95980.31;5093280;28;20205;-77
2022/08/27 10:27:45;;;;;;;3.83;3.45;;;;;;;23.40;93.50;95981.44;5084364;28;20220;-77
2022/08/27 10:30:15;;;;;;;3.53;3.22;;;;;;;23.47;93.07;95982.94;5083444;28;20205;-77
2022/08/27 10:33:08;;;;;;;5.20;3.40;;;;;;;23.57;91.89;95979.88;5081802;28;20205;-76
2022/08/27 10:35:40;;;;;;;3.53;3.22;;;;;;;23.51;90.94;95978.41;5081558;28;20209;-77
2022/08/27 10:38:18;;;;;;;5.22;3.78;;;;;;;23.47;92.99;95977.44;5078082;28;20205;-77
2022/08/27 10:40:54;;;;;;;3.80;3.50;;;;;;;23.65;91.04;95974.38;5086948;28;20240;-79
2022/08/27 10:43:46;;;;;;;4.38;3.60;;;;;;;23.68;88.33;95973.75;5087118;28;20224;-79
2022/08/27 10:46:35;;;;;;;3.65;3.35;;;;;;;23.68;89.30;95964.66;5071157;28;20229;-79
2022/08/27 10:49:12;;;;;;;3.75;3.45;;;;;;;23.76;90.75;95972.13;5075444;28;20206;-76
2022/08/27 10:51:45;;;;;;;3.60;3.30;;;;;;;23.83;90.47;95966.13;5085441;28;20207;-76
2022/08/27 10:54:21;;;;;;;4.97;3.55;;;;;;;23.86;92.04;95963.53;5087543;28;20196;-76
2022/08/27 10:56:58;;;;;;;3.40;3.10;;;;;;;23.86;89.82;95974.56;5084826;28;20263;-76
2022/08/27 10:59:35;;;;;;;4.28;3.58;;;;;;;23.92;90.57;95966.94;5088935;28;20227;-76
2022/08/27 11:02:14;;;;;;;3.67;3.33;;;;;;;23.92;87.67;95965.00;5089222;28;20228;-76
2022/08/27 11:04:49;;;;;;;4.78;3.22;;;;;;;23.90;86.99;95970.03;5076285;28;20212;-77
2022/08/27 11:07:22;;;;;;;4.15;3.75;;;;;;;23.85;87.98;95966.63;5082171;28;20204;-77
2022/08/27 11:09:52;;;;;;;4.00;3.63;;;;;;;23.86;87.96;95958.03;5079100;28;20283;-80
2022/08/27 11:12:29;;;;;;;4.22;3.83;;;;;;;23.73;88.67;95956.25;5086672;28;20246;-80
2022/08/27 11:15:00;;;;;;;4.00;3.63;;;;;;;23.73;89.52;95959.78;5077697;28;20216;-79
2022/08/27 11:17:33;;;;;;;4.38;3.97;;;;;;;23.79;90.69;95957.72;5087621;28;20281;-80
2022/08/27 11:20:07;;;;;;;3.97;3.58;;;;;;;23.82;90.90;95959.00;5077533;28;20231;-80
2022/08/27 11:22:38;;;;;;;4.20;3.80;;;;;;;23.85;91.92;95950.88;5095613;27;20231;-80
2022/08/27 11:25:15;;;;;;;3.97;3.50;;;;;;;23.97;91.66;95953.81;5085561;28;20212;-80
2022/08/27 11:27:47;;;;;;;3.75;3.45;;;;;;;23.94;89.19;95950.88;5087847;28;20224;-80
2022/08/27 11:30:27;;;;;;;3.92;3.63;;;;;;;24.00;90.94;95955.91;5082993;28;20196;-76
2022/08/27 11:33:03;;;;;;;3.83;3.47;;;;;;;24.01;89.79;95949.25;5086883;28;20237;-77
2022/08/27 11:35:40;;;;;;;4.22;3.75;;;;;;;24.12;90.34;95947.81;5081043;28;20224;-76
2022/08/27 11:38:35;;;;;;;4.20;3.80;;;;;;;24.22;89.71;95940.34;5094860;27;20198;-76
2022/08/27 11:41:39;;;;;;;5.05;3.75;;;;;;;24.25;87.54;95937.72;5080105;28;20311;-76
2022/08/27 11:44:09;;;;;;;3.90;3.60;;;;;;;24.30;87.53;95928.50;5088842;28;20208;-77
2022/08/27 11:46:44;;;;;;;4.40;3.70;;;;;;;24.40;87.98;95920.69;5083696;28;20192;-77